sensor_id;sensor_type;location;lat;lon;timestamp;P1;durP1;ratioP1;P2;durP2;ratioP2
77012;SDS011;67260;53.130;17.982;2023-07-31T00:00:20;4.60;;;2.20;;
77012;SDS011;67260;53.130;17.982;2023-07-31T00:03:07;4.80;;;2.50;;
77012;SDS011;67260;53.130;17.982;2023-07-31T00:05:34;4.70;;;2.00;;
77012;SDS011;67260;53.130;17.982;2023-07-31T00:08:01;4.30;;;2.30;;
77012;SDS011;67260;53.130;17.982;2023-07-31T00:10:27;4.70;;;2.20;;
77012;SDS011;67260;53.130;17.982;2023-07-31T00:12:54;6.50;;;2.40;;
77012;SDS011;67260;53.130;17.982;2023-07-31T00:15:37;6.70;;;2.20;;
77012;SDS011;67260;53.130;17.982;2023-07-31T00:18:05;5.20;;;2.20;;
77012;SDS011;67260;53.130;17.982;2023-07-31T00:20:31;3.70;;;2.20;;
77012;SDS011;67260;53.130;17.982;2023-07-31T00:22:58;4.50;;;2.30;;
77012;SDS011;67260;53.130;17.982;2023-07-31T00:25:25;4.00;;;2.20;;
77012;SDS011;67260;53.130;17.982;2023-07-31T00:27:51;5.30;;;2.30;;
77012;SDS011;67260;53.130;17.982;2023-07-31T00:30:18;5.30;;;2.30;;
77012;SDS011;67260;53.130;17.982;2023-07-31T00:32:45;5.00;;;2.10;;
77012;SDS011;67260;53.130;17.982;2023-07-31T00:35:12;5.20;;;2.00;;
77012;SDS011;67260;53.130;17.982;2023-07-31T00:37:39;5.60;;;2.00;;
77012;SDS011;67260;53.130;17.982;2023-07-31T00:40:06;7.00;;;2.20;;
77012;SDS011;67260;53.130;17.982;2023-07-31T00:42:35;4.40;;;2.10;;
77012;SDS011;67260;53.130;17.982;2023-07-31T00:45:02;4.00;;;2.10;;
77012;SDS011;67260;53.130;17.982;2023-07-31T00:47:41;3.70;;;2.00;;
77012;SDS011;67260;53.130;17.982;2023-07-31T00:50:16;5.80;;;2.40;;
77012;SDS011;67260;53.130;17.982;2023-07-31T00:52:44;5.20;;;2.10;;
77012;SDS011;67260;53.130;17.982;2023-07-31T00:55:25;4.40;;;1.90;;
77012;SDS011;67260;53.130;17.982;2023-07-31T00:57:54;4.00;;;1.90;;
77012;SDS011;67260;53.130;17.982;2023-07-31T01:00:22;4.90;;;2.00;;
77012;SDS011;67260;53.130;17.982;2023-07-31T01:02:49;4.60;;;2.00;;
77012;SDS011;67260;53.130;17.982;2023-07-31T01:05:23;4.20;;;2.10;;
77012;SDS011;67260;53.130;17.982;2023-07-31T01:08:19;6.60;;;2.40;;
77012;SDS011;67260;53.130;17.982;2023-07-31T01:11:18;5.20;;;2.10;;
77012;SDS011;67260;53.130;17.982;2023-07-31T01:14:06;5.50;;;2.40;;
77012;SDS011;67260;53.130;17.982;2023-07-31T01:16:33;5.10;;;2.20;;
77012;SDS011;67260;53.130;17.982;2023-07-31T01:19:03;5.30;;;2.20;;
77012;SDS011;67260;53.130;17.982;2023-07-31T01:27:48;4.90;;;2.20;;
77012;SDS011;67260;53.130;17.982;2023-07-31T01:30:27;4.50;;;2.20;;
77012;SDS011;67260;53.130;17.982;2023-07-31T01:33:04;5.00;;;2.40;;
77012;SDS011;67260;53.130;17.982;2023-07-31T01:35:34;8.20;;;2.40;;
77012;SDS011;67260;53.130;17.982;2023-07-31T01:38:01;5.50;;;2.30;;
77012;SDS011;67260;53.130;17.982;2023-07-31T01:40:34;6.30;;;2.20;;
77012;SDS011;67260;53.130;17.982;2023-07-31T01:43:10;5.30;;;2.10;;
77012;SDS011;67260;53.130;17.982;2023-07-31T01:45:37;5.70;;;2.20;;
77012;SDS011;67260;53.130;17.982;2023-07-31T01:48:05;5.90;;;2.40;;
77012;SDS011;67260;53.130;17.982;2023-07-31T01:50:31;6.40;;;2.30;;
77012;SDS011;67260;53.130;17.982;2023-07-31T01:53:09;7.30;;;2.30;;
77012;SDS011;67260;53.130;17.982;2023-07-31T01:55:36;5.00;;;2.10;;
77012;SDS011;67260;53.130;17.982;2023-07-31T01:58:02;4.10;;;2.00;;
77012;SDS011;67260;53.130;17.982;2023-07-31T02:00:29;5.10;;;2.20;;
77012;SDS011;67260;53.130;17.982;2023-07-31T02:02:58;6.90;;;2.60;;
77012;SDS011;67260;53.130;17.982;2023-07-31T02:05:36;6.80;;;2.60;;
77012;SDS011;67260;53.130;17.982;2023-07-31T02:08:15;5.80;;;2.50;;
77012;SDS011;67260;53.130;17.982;2023-07-31T02:10:43;5.40;;;2.40;;
77012;SDS011;67260;53.130;17.982;2023-07-31T02:13:13;4.90;;;2.60;;
77012;SDS011;67260;53.130;17.982;2023-07-31T02:15:40;7.50;;;2.20;;
77012;SDS011;67260;53.130;17.982;2023-07-31T02:18:06;5.90;;;2.70;;
77012;SDS011;67260;53.130;17.982;2023-07-31T02:20:39;4.70;;;2.50;;
77012;SDS011;67260;53.130;17.982;2023-07-31T02:23:20;6.60;;;2.50;;
77012;SDS011;67260;53.130;17.982;2023-07-31T02:25:47;5.90;;;2.60;;
77012;SDS011;67260;53.130;17.982;2023-07-31T02:28:14;8.20;;;2.70;;
77012;SDS011;67260;53.130;17.982;2023-07-31T02:30:43;5.60;;;2.70;;
77012;SDS011;67260;53.130;17.982;2023-07-31T02:33:23;6.60;;;2.50;;
77012;SDS011;67260;53.130;17.982;2023-07-31T02:35:52;9.20;;;2.50;;
77012;SDS011;67260;53.130;17.982;2023-07-31T02:38:19;6.90;;;2.60;;
77012;SDS011;67260;53.130;17.982;2023-07-31T02:40:46;6.90;;;2.80;;
77012;SDS011;67260;53.130;17.982;2023-07-31T02:43:12;6.10;;;2.50;;
77012;SDS011;67260;53.130;17.982;2023-07-31T02:45:39;4.70;;;2.30;;
77012;SDS011;67260;53.130;17.982;2023-07-31T02:48:06;6.60;;;2.60;;
77012;SDS011;67260;53.130;17.982;2023-07-31T02:50:33;5.30;;;2.30;;
77012;SDS011;67260;53.130;17.982;2023-07-31T02:52:59;5.30;;;2.50;;
77012;SDS011;67260;53.130;17.982;2023-07-31T02:55:27;5.10;;;2.20;;
77012;SDS011;67260;53.130;17.982;2023-07-31T02:57:54;4.90;;;2.30;;
77012;SDS011;67260;53.130;17.982;2023-07-31T03:00:21;4.60;;;2.40;;
77012;SDS011;67260;53.130;17.982;2023-07-31T03:02:48;4.80;;;2.30;;
77012;SDS011;67260;53.130;17.982;2023-07-31T03:05:15;5.90;;;2.20;;
77012;SDS011;67260;53.130;17.982;2023-07-31T03:07:42;5.10;;;2.10;;
77012;SDS011;67260;53.130;17.982;2023-07-31T03:10:09;4.40;;;2.30;;
77012;SDS011;67260;53.130;17.982;2023-07-31T03:12:37;6.30;;;2.40;;
77012;SDS011;67260;53.130;17.982;2023-07-31T03:15:05;7.50;;;2.50;;
77012;SDS011;67260;53.130;17.982;2023-07-31T03:17:32;4.70;;;2.20;;
77012;SDS011;67260;53.130;17.982;2023-07-31T03:19:59;6.00;;;2.60;;
77012;SDS011;67260;53.130;17.982;2023-07-31T03:22:26;4.20;;;2.30;;
77012;SDS011;67260;53.130;17.982;2023-07-31T03:24:53;5.20;;;2.20;;
77012;SDS011;67260;53.130;17.982;2023-07-31T03:27:30;5.10;;;2.20;;
77012;SDS011;67260;53.130;17.982;2023-07-31T03:29:58;5.40;;;2.30;;
77012;SDS011;67260;53.130;17.982;2023-07-31T03:32:27;4.70;;;2.30;;
77012;SDS011;67260;53.130;17.982;2023-07-31T03:34:54;5.50;;;2.10;;
77012;SDS011;67260;53.130;17.982;2023-07-31T03:37:21;5.30;;;2.40;;
77012;SDS011;67260;53.130;17.982;2023-07-31T03:39:48;8.80;;;2.60;;
77012;SDS011;67260;53.130;17.982;2023-07-31T03:42:16;6.00;;;2.50;;
77012;SDS011;67260;53.130;17.982;2023-07-31T03:44:44;8.50;;;2.30;;
77012;SDS011;67260;53.130;17.982;2023-07-31T03:47:12;6.40;;;2.80;;
77012;SDS011;67260;53.130;17.982;2023-07-31T03:49:40;5.80;;;2.50;;
77012;SDS011;67260;53.130;17.982;2023-07-31T03:52:08;6.90;;;2.60;;
77012;SDS011;67260;53.130;17.982;2023-07-31T03:54:37;5.50;;;2.70;;
77012;SDS011;67260;53.130;17.982;2023-07-31T03:57:03;5.20;;;2.70;;
77012;SDS011;67260;53.130;17.982;2023-07-31T03:59:30;6.80;;;2.30;;
77012;SDS011;67260;53.130;17.982;2023-07-31T04:01:57;5.90;;;2.40;;
77012;SDS011;67260;53.130;17.982;2023-07-31T04:04:24;5.60;;;2.40;;
77012;SDS011;67260;53.130;17.982;2023-07-31T04:06:52;6.00;;;2.50;;
77012;SDS011;67260;53.130;17.982;2023-07-31T04:09:19;6.80;;;2.50;;
77012;SDS011;67260;53.130;17.982;2023-07-31T04:11:46;6.70;;;2.60;;
77012;SDS011;67260;53.130;17.982;2023-07-31T04:14:13;6.30;;;2.70;;
77012;SDS011;67260;53.130;17.982;2023-07-31T04:16:40;5.60;;;2.60;;
77012;SDS011;67260;53.130;17.982;2023-07-31T04:19:08;4.80;;;2.10;;
77012;SDS011;67260;53.130;17.982;2023-07-31T04:21:48;4.90;;;2.10;;
77012;SDS011;67260;53.130;17.982;2023-07-31T04:24:38;5.30;;;2.10;;
77012;SDS011;67260;53.130;17.982;2023-07-31T04:27:22;6.50;;;2.60;;
77012;SDS011;67260;53.130;17.982;2023-07-31T04:30:08;6.60;;;2.60;;
77012;SDS011;67260;53.130;17.982;2023-07-31T04:32:36;6.10;;;2.30;;
77012;SDS011;67260;53.130;17.982;2023-07-31T04:35:06;8.30;;;2.70;;
77012;SDS011;67260;53.130;17.982;2023-07-31T04:37:38;5.20;;;2.80;;
77012;SDS011;67260;53.130;17.982;2023-07-31T04:40:35;6.00;;;2.20;;
77012;SDS011;67260;53.130;17.982;2023-07-31T04:43:06;5.30;;;2.30;;
77012;SDS011;67260;53.130;17.982;2023-07-31T04:45:35;5.90;;;1.80;;
77012;SDS011;67260;53.130;17.982;2023-07-31T04:48:18;4.80;;;2.30;;
77012;SDS011;67260;53.130;17.982;2023-07-31T04:50:45;5.00;;;2.30;;
77012;SDS011;67260;53.130;17.982;2023-07-31T04:53:29;6.90;;;2.30;;
77012;SDS011;67260;53.130;17.982;2023-07-31T04:59:03;5.00;;;2.10;;
77012;SDS011;67260;53.130;17.982;2023-07-31T05:01:54;6.00;;;2.00;;
77012;SDS011;67260;53.130;17.982;2023-07-31T05:04:43;4.00;;;2.00;;
77012;SDS011;67260;53.130;17.982;2023-07-31T05:07:10;5.00;;;1.90;;
77012;SDS011;67260;53.130;17.982;2023-07-31T05:09:39;5.60;;;2.00;;
77012;SDS011;67260;53.130;17.982;2023-07-31T05:12:06;4.50;;;1.70;;
77012;SDS011;67260;53.130;17.982;2023-07-31T05:14:34;5.30;;;1.80;;
77012;SDS011;67260;53.130;17.982;2023-07-31T05:17:02;5.40;;;1.80;;
77012;SDS011;67260;53.130;17.982;2023-07-31T05:19:35;4.70;;;2.00;;
77012;SDS011;67260;53.130;17.982;2023-07-31T05:22:22;8.60;;;1.90;;
77012;SDS011;67260;53.130;17.982;2023-07-31T05:24:54;7.40;;;2.10;;
77012;SDS011;67260;53.130;17.982;2023-07-31T05:27:24;5.70;;;2.00;;
77012;SDS011;67260;53.130;17.982;2023-07-31T05:30:00;4.80;;;1.90;;
77012;SDS011;67260;53.130;17.982;2023-07-31T05:32:51;5.60;;;2.00;;
77012;SDS011;67260;53.130;17.982;2023-07-31T05:35:33;5.60;;;1.90;;
77012;SDS011;67260;53.130;17.982;2023-07-31T05:38:14;4.00;;;1.90;;
77012;SDS011;67260;53.130;17.982;2023-07-31T05:41:08;5.60;;;1.90;;
77012;SDS011;67260;53.130;17.982;2023-07-31T05:43:41;5.10;;;1.70;;
77012;SDS011;67260;53.130;17.982;2023-07-31T05:46:11;5.00;;;1.90;;
77012;SDS011;67260;53.130;17.982;2023-07-31T05:48:38;4.50;;;1.70;;
77012;SDS011;67260;53.130;17.982;2023-07-31T05:51:30;5.00;;;1.90;;
77012;SDS011;67260;53.130;17.982;2023-07-31T05:53:57;4.80;;;1.60;;
77012;SDS011;67260;53.130;17.982;2023-07-31T05:56:24;4.00;;;2.00;;
77012;SDS011;67260;53.130;17.982;2023-07-31T05:58:51;4.90;;;1.70;;
77012;SDS011;67260;53.130;17.982;2023-07-31T06:01:18;4.00;;;1.60;;
77012;SDS011;67260;53.130;17.982;2023-07-31T06:03:53;3.90;;;1.60;;
77012;SDS011;67260;53.130;17.982;2023-07-31T06:06:19;4.50;;;1.60;;
77012;SDS011;67260;53.130;17.982;2023-07-31T06:08:46;5.00;;;1.90;;
77012;SDS011;67260;53.130;17.982;2023-07-31T06:11:13;3.90;;;1.50;;
77012;SDS011;67260;53.130;17.982;2023-07-31T06:13:39;6.90;;;1.70;;
77012;SDS011;67260;53.130;17.982;2023-07-31T06:16:06;4.10;;;1.90;;
77012;SDS011;67260;53.130;17.982;2023-07-31T06:18:33;5.90;;;1.50;;
77012;SDS011;67260;53.130;17.982;2023-07-31T06:20:59;3.70;;;1.60;;
77012;SDS011;67260;53.130;17.982;2023-07-31T06:23:26;4.00;;;1.40;;
77012;SDS011;67260;53.130;17.982;2023-07-31T06:25:53;4.50;;;1.50;;
77012;SDS011;67260;53.130;17.982;2023-07-31T06:28:19;6.00;;;1.60;;
77012;SDS011;67260;53.130;17.982;2023-07-31T06:30:46;5.10;;;1.60;;
77012;SDS011;67260;53.130;17.982;2023-07-31T06:33:13;2.90;;;1.30;;
77012;SDS011;67260;53.130;17.982;2023-07-31T06:35:40;4.80;;;1.50;;
77012;SDS011;67260;53.130;17.982;2023-07-31T06:38:06;4.00;;;1.50;;
77012;SDS011;67260;53.130;17.982;2023-07-31T06:40:33;3.90;;;1.50;;
77012;SDS011;67260;53.130;17.982;2023-07-31T06:43:00;3.10;;;1.40;;
77012;SDS011;67260;53.130;17.982;2023-07-31T06:45:35;5.10;;;1.60;;
77012;SDS011;67260;53.130;17.982;2023-07-31T06:48:04;4.40;;;1.50;;
77012;SDS011;67260;53.130;17.982;2023-07-31T06:50:42;5.50;;;1.50;;
77012;SDS011;67260;53.130;17.982;2023-07-31T06:53:09;3.70;;;1.50;;
77012;SDS011;67260;53.130;17.982;2023-07-31T06:55:36;4.10;;;1.50;;
77012;SDS011;67260;53.130;17.982;2023-07-31T06:58:02;4.60;;;1.40;;
77012;SDS011;67260;53.130;17.982;2023-07-31T07:00:29;4.60;;;1.30;;
77012;SDS011;67260;53.130;17.982;2023-07-31T07:02:55;5.00;;;1.50;;
77012;SDS011;67260;53.130;17.982;2023-07-31T07:05:22;5.10;;;1.80;;
77012;SDS011;67260;53.130;17.982;2023-07-31T07:07:49;4.50;;;1.40;;
77012;SDS011;67260;53.130;17.982;2023-07-31T07:10:18;4.00;;;1.70;;
77012;SDS011;67260;53.130;17.982;2023-07-31T07:12:45;5.80;;;1.80;;
77012;SDS011;67260;53.130;17.982;2023-07-31T07:15:12;4.50;;;1.50;;
77012;SDS011;67260;53.130;17.982;2023-07-31T07:17:39;6.10;;;1.60;;
77012;SDS011;67260;53.130;17.982;2023-07-31T07:20:06;6.00;;;2.10;;
77012;SDS011;67260;53.130;17.982;2023-07-31T07:22:34;4.70;;;1.60;;
77012;SDS011;67260;53.130;17.982;2023-07-31T07:25:01;3.90;;;1.50;;
77012;SDS011;67260;53.130;17.982;2023-07-31T07:27:30;5.90;;;1.80;;
77012;SDS011;67260;53.130;17.982;2023-07-31T07:29:57;6.10;;;1.70;;
77012;SDS011;67260;53.130;17.982;2023-07-31T07:32:24;4.60;;;1.50;;
77012;SDS011;67260;53.130;17.982;2023-07-31T07:34:51;5.80;;;1.90;;
77012;SDS011;67260;53.130;17.982;2023-07-31T07:37:17;4.50;;;1.30;;
77012;SDS011;67260;53.130;17.982;2023-07-31T07:39:44;3.40;;;1.40;;
77012;SDS011;67260;53.130;17.982;2023-07-31T07:42:11;5.10;;;1.50;;
77012;SDS011;67260;53.130;17.982;2023-07-31T07:44:37;3.80;;;1.50;;
77012;SDS011;67260;53.130;17.982;2023-07-31T07:47:05;3.60;;;1.30;;
77012;SDS011;67260;53.130;17.982;2023-07-31T07:49:33;4.60;;;1.40;;
77012;SDS011;67260;53.130;17.982;2023-07-31T07:52:01;5.00;;;1.50;;
77012;SDS011;67260;53.130;17.982;2023-07-31T07:54:28;5.10;;;1.80;;
77012;SDS011;67260;53.130;17.982;2023-07-31T07:56:55;6.50;;;1.70;;
77012;SDS011;67260;53.130;17.982;2023-07-31T07:59:22;4.20;;;1.40;;
77012;SDS011;67260;53.130;17.982;2023-07-31T08:01:48;3.50;;;1.30;;
77012;SDS011;67260;53.130;17.982;2023-07-31T08:04:15;5.90;;;1.60;;
77012;SDS011;67260;53.130;17.982;2023-07-31T08:06:42;5.20;;;1.50;;
77012;SDS011;67260;53.130;17.982;2023-07-31T08:09:09;4.50;;;1.40;;
77012;SDS011;67260;53.130;17.982;2023-07-31T08:11:35;6.30;;;1.60;;
77012;SDS011;67260;53.130;17.982;2023-07-31T08:14:02;3.90;;;1.20;;
77012;SDS011;67260;53.130;17.982;2023-07-31T08:16:29;3.50;;;1.20;;
77012;SDS011;67260;53.130;17.982;2023-07-31T08:18:56;3.30;;;1.10;;
77012;SDS011;67260;53.130;17.982;2023-07-31T08:21:23;7.30;;;1.40;;
77012;SDS011;67260;53.130;17.982;2023-07-31T08:23:51;5.50;;;1.30;;
77012;SDS011;67260;53.130;17.982;2023-07-31T08:26:19;3.60;;;1.40;;
77012;SDS011;67260;53.130;17.982;2023-07-31T08:28:48;4.10;;;1.50;;
77012;SDS011;67260;53.130;17.982;2023-07-31T08:31:14;5.20;;;1.50;;
77012;SDS011;67260;53.130;17.982;2023-07-31T08:33:41;4.40;;;1.50;;
77012;SDS011;67260;53.130;17.982;2023-07-31T08:36:08;3.40;;;1.40;;
77012;SDS011;67260;53.130;17.982;2023-07-31T08:38:35;3.10;;;1.20;;
77012;SDS011;67260;53.130;17.982;2023-07-31T08:41:04;5.30;;;1.50;;
77012;SDS011;67260;53.130;17.982;2023-07-31T08:43:31;3.40;;;1.30;;
77012;SDS011;67260;53.130;17.982;2023-07-31T08:45:59;4.10;;;1.30;;
77012;SDS011;67260;53.130;17.982;2023-07-31T08:48:26;3.10;;;1.10;;
77012;SDS011;67260;53.130;17.982;2023-07-31T08:50:55;4.90;;;1.50;;
77012;SDS011;67260;53.130;17.982;2023-07-31T08:53:21;5.00;;;1.50;;
77012;SDS011;67260;53.130;17.982;2023-07-31T08:55:48;3.30;;;1.50;;
77012;SDS011;67260;53.130;17.982;2023-07-31T08:58:15;3.10;;;1.30;;
77012;SDS011;67260;53.130;17.982;2023-07-31T09:00:43;5.10;;;1.40;;
77012;SDS011;67260;53.130;17.982;2023-07-31T09:03:17;5.80;;;1.90;;
77012;SDS011;67260;53.130;17.982;2023-07-31T09:05:46;4.90;;;1.40;;
77012;SDS011;67260;53.130;17.982;2023-07-31T09:08:14;5.10;;;1.60;;
77012;SDS011;67260;53.130;17.982;2023-07-31T09:10:45;6.80;;;1.70;;
77012;SDS011;67260;53.130;17.982;2023-07-31T09:13:15;5.10;;;1.60;;
77012;SDS011;67260;53.130;17.982;2023-07-31T09:15:45;4.70;;;1.50;;
77012;SDS011;67260;53.130;17.982;2023-07-31T09:18:12;4.50;;;1.60;;
77012;SDS011;67260;53.130;17.982;2023-07-31T09:20:43;4.90;;;1.40;;
77012;SDS011;67260;53.130;17.982;2023-07-31T09:23:11;4.80;;;1.70;;
77012;SDS011;67260;53.130;17.982;2023-07-31T09:25:43;5.40;;;1.90;;
77012;SDS011;67260;53.130;17.982;2023-07-31T09:28:11;3.80;;;1.60;;
77012;SDS011;67260;53.130;17.982;2023-07-31T09:30:51;5.10;;;1.60;;
77012;SDS011;67260;53.130;17.982;2023-07-31T09:33:23;4.10;;;1.50;;
77012;SDS011;67260;53.130;17.982;2023-07-31T09:35:49;5.60;;;1.70;;
77012;SDS011;67260;53.130;17.982;2023-07-31T09:38:16;3.80;;;1.90;;
77012;SDS011;67260;53.130;17.982;2023-07-31T09:40:49;5.80;;;2.10;;
77012;SDS011;67260;53.130;17.982;2023-07-31T09:45:55;6.00;;;1.90;;
77012;SDS011;67260;53.130;17.982;2023-07-31T09:48:29;4.40;;;2.20;;
77012;SDS011;67260;53.130;17.982;2023-07-31T09:50:57;6.00;;;2.10;;
77012;SDS011;67260;53.130;17.982;2023-07-31T09:53:31;10.10;;;2.20;;
77012;SDS011;67260;53.130;17.982;2023-07-31T09:55:58;5.20;;;1.70;;
77012;SDS011;67260;53.130;17.982;2023-07-31T09:58:26;12.30;;;2.20;;
77012;SDS011;67260;53.130;17.982;2023-07-31T10:00:55;6.80;;;2.20;;
77012;SDS011;67260;53.130;17.982;2023-07-31T10:03:25;6.50;;;2.40;;
77012;SDS011;67260;53.130;17.982;2023-07-31T10:05:55;6.20;;;2.20;;
77012;SDS011;67260;53.130;17.982;2023-07-31T10:08:27;4.00;;;1.80;;
77012;SDS011;67260;53.130;17.982;2023-07-31T10:11:02;5.90;;;2.00;;
77012;SDS011;67260;53.130;17.982;2023-07-31T10:13:32;4.30;;;1.80;;
77012;SDS011;67260;53.130;17.982;2023-07-31T10:16:00;7.10;;;2.20;;
77012;SDS011;67260;53.130;17.982;2023-07-31T10:18:30;4.70;;;2.10;;
77012;SDS011;67260;53.130;17.982;2023-07-31T10:21:06;7.80;;;2.20;;
77012;SDS011;67260;53.130;17.982;2023-07-31T10:23:37;6.90;;;2.50;;
77012;SDS011;67260;53.130;17.982;2023-07-31T10:26:19;5.80;;;2.40;;
77012;SDS011;67260;53.130;17.982;2023-07-31T10:28:57;6.10;;;2.10;;
77012;SDS011;67260;53.130;17.982;2023-07-31T10:31:26;6.60;;;2.10;;
77012;SDS011;67260;53.130;17.982;2023-07-31T10:33:55;5.00;;;2.10;;
77012;SDS011;67260;53.130;17.982;2023-07-31T10:36:29;6.00;;;2.20;;
77012;SDS011;67260;53.130;17.982;2023-07-31T10:39:02;7.30;;;2.30;;
77012;SDS011;67260;53.130;17.982;2023-07-31T10:41:32;5.50;;;2.10;;
77012;SDS011;67260;53.130;17.982;2023-07-31T10:44:00;6.10;;;2.10;;
77012;SDS011;67260;53.130;17.982;2023-07-31T10:46:36;6.00;;;2.10;;
77012;SDS011;67260;53.130;17.982;2023-07-31T10:49:03;5.90;;;2.20;;
77012;SDS011;67260;53.130;17.982;2023-07-31T10:51:47;4.80;;;2.30;;
77012;SDS011;67260;53.130;17.982;2023-07-31T10:54:15;6.90;;;2.50;;
77012;SDS011;67260;53.130;17.982;2023-07-31T10:56:51;6.30;;;2.40;;
77012;SDS011;67260;53.130;17.982;2023-07-31T10:59:26;4.70;;;1.90;;
77012;SDS011;67260;53.130;17.982;2023-07-31T11:01:56;5.40;;;1.90;;
77012;SDS011;67260;53.130;17.982;2023-07-31T11:04:31;4.20;;;1.70;;
77012;SDS011;67260;53.130;17.982;2023-07-31T11:07:00;5.80;;;1.90;;
77012;SDS011;67260;53.130;17.982;2023-07-31T11:09:30;3.60;;;1.70;;
77012;SDS011;67260;53.130;17.982;2023-07-31T11:12:01;4.30;;;1.50;;
77012;SDS011;67260;53.130;17.982;2023-07-31T11:14:27;7.50;;;1.60;;
77012;SDS011;67260;53.130;17.982;2023-07-31T11:19:58;4.70;;;1.60;;
77012;SDS011;67260;53.130;17.982;2023-07-31T11:22:26;4.70;;;1.90;;
77012;SDS011;67260;53.130;17.982;2023-07-31T11:24:54;5.90;;;1.80;;
77012;SDS011;67260;53.130;17.982;2023-07-31T11:27:22;4.90;;;1.70;;
77012;SDS011;67260;53.130;17.982;2023-07-31T11:29:51;5.10;;;1.80;;
77012;SDS011;67260;53.130;17.982;2023-07-31T11:32:17;6.10;;;2.00;;
77012;SDS011;67260;53.130;17.982;2023-07-31T11:34:54;4.60;;;1.80;;
77012;SDS011;67260;53.130;17.982;2023-07-31T11:37:21;6.20;;;2.00;;
77012;SDS011;67260;53.130;17.982;2023-07-31T11:40:01;6.20;;;1.70;;
77012;SDS011;67260;53.130;17.982;2023-07-31T11:42:30;4.90;;;1.80;;
77012;SDS011;67260;53.130;17.982;2023-07-31T11:45:14;7.10;;;2.40;;
77012;SDS011;67260;53.130;17.982;2023-07-31T11:47:41;4.60;;;2.10;;
77012;SDS011;67260;53.130;17.982;2023-07-31T11:50:10;4.60;;;2.10;;
77012;SDS011;67260;53.130;17.982;2023-07-31T11:52:55;4.00;;;1.90;;
77012;SDS011;67260;53.130;17.982;2023-07-31T11:58:18;4.90;;;2.00;;
77012;SDS011;67260;53.130;17.982;2023-07-31T12:00:47;4.00;;;1.90;;
77012;SDS011;67260;53.130;17.982;2023-07-31T12:03:16;4.20;;;2.00;;
77012;SDS011;67260;53.130;17.982;2023-07-31T12:05:43;3.30;;;1.60;;
77012;SDS011;67260;53.130;17.982;2023-07-31T12:08:10;3.50;;;1.60;;
77012;SDS011;67260;53.130;17.982;2023-07-31T12:10:38;4.10;;;1.60;;
77012;SDS011;67260;53.130;17.982;2023-07-31T12:13:08;4.60;;;1.60;;
77012;SDS011;67260;53.130;17.982;2023-07-31T12:15:46;4.00;;;1.80;;
77012;SDS011;67260;53.130;17.982;2023-07-31T12:18:19;6.80;;;1.80;;
77012;SDS011;67260;53.130;17.982;2023-07-31T12:20:53;4.60;;;1.70;;
77012;SDS011;67260;53.130;17.982;2023-07-31T12:23:28;5.30;;;1.80;;
77012;SDS011;67260;53.130;17.982;2023-07-31T12:26:13;4.00;;;1.60;;
77012;SDS011;67260;53.130;17.982;2023-07-31T12:29:35;4.10;;;1.70;;
77012;SDS011;67260;53.130;17.982;2023-07-31T12:32:24;5.10;;;1.60;;
77012;SDS011;67260;53.130;17.982;2023-07-31T12:35:42;2.80;;;1.40;;
77012;SDS011;67260;53.130;17.982;2023-07-31T12:41:36;5.10;;;1.60;;
77012;SDS011;67260;53.130;17.982;2023-07-31T12:44:23;3.90;;;1.80;;
77012;SDS011;67260;53.130;17.982;2023-07-31T12:47:51;4.20;;;1.50;;
77012;SDS011;67260;53.130;17.982;2023-07-31T12:50:43;4.00;;;1.50;;
77012;SDS011;67260;53.130;17.982;2023-07-31T12:53:46;5.70;;;1.60;;
77012;SDS011;67260;53.130;17.982;2023-07-31T12:56:36;4.70;;;1.70;;
77012;SDS011;67260;53.130;17.982;2023-07-31T12:59:50;4.20;;;1.90;;
77012;SDS011;67260;53.130;17.982;2023-07-31T13:02:45;3.30;;;1.70;;
77012;SDS011;67260;53.130;17.982;2023-07-31T13:05:47;6.20;;;1.90;;
77012;SDS011;67260;53.130;17.982;2023-07-31T13:08:51;5.10;;;1.90;;
77012;SDS011;67260;53.130;17.982;2023-07-31T13:11:39;5.00;;;1.90;;
77012;SDS011;67260;53.130;17.982;2023-07-31T13:14:06;3.70;;;1.50;;
77012;SDS011;67260;53.130;17.982;2023-07-31T13:17:00;5.00;;;1.70;;
77012;SDS011;67260;53.130;17.982;2023-07-31T13:19:32;4.70;;;1.80;;
77012;SDS011;67260;53.130;17.982;2023-07-31T13:22:10;3.70;;;1.70;;
77012;SDS011;67260;53.130;17.982;2023-07-31T13:24:54;3.70;;;1.90;;
77012;SDS011;67260;53.130;17.982;2023-07-31T13:27:35;3.60;;;2.00;;
77012;SDS011;67260;53.130;17.982;2023-07-31T13:30:02;4.60;;;2.20;;
77012;SDS011;67260;53.130;17.982;2023-07-31T13:32:29;4.70;;;1.90;;
77012;SDS011;67260;53.130;17.982;2023-07-31T13:34:56;2.90;;;1.50;;
77012;SDS011;67260;53.130;17.982;2023-07-31T13:37:24;3.90;;;1.90;;
77012;SDS011;67260;53.130;17.982;2023-07-31T13:39:51;4.60;;;1.70;;
77012;SDS011;67260;53.130;17.982;2023-07-31T13:42:18;4.00;;;2.00;;
77012;SDS011;67260;53.130;17.982;2023-07-31T13:44:45;6.40;;;2.40;;
77012;SDS011;67260;53.130;17.982;2023-07-31T13:47:11;4.90;;;1.80;;
77012;SDS011;67260;53.130;17.982;2023-07-31T13:49:38;4.30;;;1.90;;
77012;SDS011;67260;53.130;17.982;2023-07-31T13:52:06;3.80;;;1.60;;
77012;SDS011;67260;53.130;17.982;2023-07-31T13:54:33;3.60;;;2.00;;
77012;SDS011;67260;53.130;17.982;2023-07-31T13:57:30;5.40;;;1.60;;
77012;SDS011;67260;53.130;17.982;2023-07-31T13:59:57;3.90;;;1.70;;
77012;SDS011;67260;53.130;17.982;2023-07-31T14:02:24;4.30;;;1.80;;
77012;SDS011;67260;53.130;17.982;2023-07-31T14:04:50;3.80;;;1.60;;
77012;SDS011;67260;53.130;17.982;2023-07-31T14:07:17;4.40;;;1.40;;
77012;SDS011;67260;53.130;17.982;2023-07-31T14:09:45;3.20;;;1.70;;
77012;SDS011;67260;53.130;17.982;2023-07-31T14:12:15;3.60;;;1.80;;
77012;SDS011;67260;53.130;17.982;2023-07-31T14:14:59;5.10;;;1.60;;
77012;SDS011;67260;53.130;17.982;2023-07-31T14:17:40;3.70;;;1.50;;
77012;SDS011;67260;53.130;17.982;2023-07-31T14:20:13;3.70;;;1.60;;
77012;SDS011;67260;53.130;17.982;2023-07-31T14:22:48;4.70;;;2.00;;
77012;SDS011;67260;53.130;17.982;2023-07-31T14:25:15;3.60;;;1.80;;
77012;SDS011;67260;53.130;17.982;2023-07-31T14:27:43;3.10;;;1.70;;
77012;SDS011;67260;53.130;17.982;2023-07-31T14:30:35;3.90;;;1.70;;
77012;SDS011;67260;53.130;17.982;2023-07-31T14:33:02;4.30;;;1.60;;
77012;SDS011;67260;53.130;17.982;2023-07-31T14:35:29;4.30;;;2.10;;
77012;SDS011;67260;53.130;17.982;2023-07-31T14:38:00;3.20;;;1.70;;
77012;SDS011;67260;53.130;17.982;2023-07-31T14:40:31;3.90;;;1.90;;
77012;SDS011;67260;53.130;17.982;2023-07-31T14:43:11;4.70;;;1.90;;
77012;SDS011;67260;53.130;17.982;2023-07-31T14:49:33;5.10;;;1.90;;
77012;SDS011;67260;53.130;17.982;2023-07-31T14:52:01;4.20;;;1.90;;
77012;SDS011;67260;53.130;17.982;2023-07-31T14:54:51;4.70;;;1.90;;
77012;SDS011;67260;53.130;17.982;2023-07-31T14:57:34;3.80;;;1.50;;
77012;SDS011;67260;53.130;17.982;2023-07-31T15:00:08;5.60;;;1.60;;
77012;SDS011;67260;53.130;17.982;2023-07-31T15:03:02;3.90;;;1.60;;
77012;SDS011;67260;53.130;17.982;2023-07-31T15:05:49;4.00;;;1.60;;
77012;SDS011;67260;53.130;17.982;2023-07-31T15:09:08;2.90;;;1.50;;
77012;SDS011;67260;53.130;17.982;2023-07-31T15:11:37;3.70;;;1.60;;
77012;SDS011;67260;53.130;17.982;2023-07-31T15:14:04;4.00;;;1.80;;
77012;SDS011;67260;53.130;17.982;2023-07-31T15:16:32;4.00;;;1.60;;
77012;SDS011;67260;53.130;17.982;2023-07-31T15:18:59;3.50;;;1.60;;
77012;SDS011;67260;53.130;17.982;2023-07-31T15:22:13;5.30;;;2.00;;
77012;SDS011;67260;53.130;17.982;2023-07-31T15:24:41;5.00;;;1.90;;
77012;SDS011;67260;53.130;17.982;2023-07-31T15:27:08;3.30;;;1.70;;